Time;durP1;ratioP1;P1;durP2;ratioP2;P2;SDS_P1;SDS_P2;PMS_P1;PMS_P2;Temp;Humidity;BMP_temperature;BMP_pressure;BME280_temperature;BME280_humidity;BME280_pressure;Samples;Min_cycle;Max_cycle;Signal;HPM_P1;HPM_P2
2021/03/02 00:01:15;;;;;;;41.60;25.20;;;;;;;-2.81;95.55;101242.53;4908184;29;20274;-83
2021/03/02 00:04:02;;;;;;;46.67;25.73;;;;;;;-2.81;95.17;101245.16;4909156;29;20282;-91
2021/03/02 00:06:53;;;;;;;42.67;24.73;;;;;;;-2.75;95.32;101260.50;4908361;29;20230;-92
2021/03/02 00:09:44;;;;;;;49.23;25.90;;;;;;;-2.77;95.30;101259.78;4909605;29;20234;-93
2021/03/02 00:12:45;;;;;;;44.73;25.17;;;;;;;-2.85;95.25;101262.03;4922980;29;20230;-90
2021/03/02 00:15:34;;;;;;;42.43;25.70;;;;;;;-2.86;95.35;101250.69;4909385;29;20245;-96
2021/03/02 00:18:21;;;;;;;43.23;25.63;;;;;;;-2.79;94.72;101272.97;4915986;29;20283;-90
2021/03/02 00:21:18;;;;;;;46.60;25.97;;;;;;;-2.92;94.55;101260.72;4904155;29;20317;-91
2021/03/02 00:24:18;;;;;;;42.30;25.40;;;;;;;-2.90;94.83;101271.97;4907733;29;20333;-86
2021/03/02 00:27:08;;;;;;;43.17;25.30;;;;;;;-3.00;95.17;101260.34;4922601;29;20226;-95
2021/03/02 00:29:52;;;;;;;43.83;26.33;;;;;;;-3.04;95.17;101267.56;4890084;29;20238;-96
2021/03/02 00:32:36;;;;;;;41.73;24.53;;;;;;;-3.09;95.41;101263.53;4901919;29;20226;-89
2021/03/02 00:35:22;;;;;;;40.57;24.30;;;;;;;-3.23;94.93;101246.84;4903145;29;20669;-88
2021/03/02 00:38:06;;;;;;;40.90;24.40;;;;;;;-3.05;95.08;101281.59;4896716;29;20225;-85
2021/03/02 00:40:51;;;;;;;42.60;24.50;;;;;;;-3.24;95.27;101245.16;4917984;29;20277;-95
2021/03/02 00:43:43;;;;;;;43.23;25.03;;;;;;;-3.13;95.32;101268.94;4916454;29;20227;-94
2021/03/02 00:46:32;;;;;;;48.10;26.00;;;;;;;-3.31;94.99;101248.25;4919785;29;20234;-91
2021/03/02 00:49:16;;;;;;;44.07;24.57;;;;;;;-3.22;95.39;101259.00;4909877;29;20231;-91
2021/03/02 00:51:58;;;;;;;47.13;26.20;;;;;;;-3.35;95.48;101238.88;4900552;29;20231;-85
2021/03/02 00:54:41;;;;;;;40.73;25.30;;;;;;;-3.26;95.34;101260.13;4898079;29;20222;-87
2021/03/02 00:57:24;;;;;;;47.13;25.00;;;;;;;-3.41;95.31;101236.63;4905192;29;20634;-90
2021/03/02 01:00:05;;;;;;;46.57;27.00;;;;;;;-3.30;95.79;101234.19;4890674;29;20234;-86
2021/03/02 01:02:44;;;;;;;47.10;26.37;;;;;;;-3.28;95.92;101248.91;4900567;29;20256;-91
2021/03/02 01:05:30;;;;;;;49.23;27.33;;;;;;;-3.35;95.70;101218.75;4903644;29;20229;-91
2021/03/02 01:08:15;;;;;;;44.90;25.17;;;;;;;-3.34;95.68;101233.53;4904706;29;20646;-87
2021/03/02 01:11:09;;;;;;;42.43;25.53;;;;;;;-3.50;95.34;101218.84;4874289;29;20322;-90
2021/03/02 01:13:58;;;;;;;46.27;25.27;;;;;;;-3.54;95.31;101210.28;4905436;29;20222;-91
2021/03/02 01:16:50;;;;;;;47.00;25.80;;;;;;;-3.38;95.54;101231.19;4918535;29;20234;-91
2021/03/02 01:19:36;;;;;;;45.80;25.13;;;;;;;-3.39;95.62;101213.78;4896201;29;20651;-83
2021/03/02 01:22:30;;;;;;;46.13;25.40;;;;;;;-3.44;95.24;101226.31;4900687;29;20226;-89
2021/03/02 01:25:26;;;;;;;39.70;23.67;;;;;;;-3.43;95.59;101226.22;4877999;29;20238;-92
2021/03/02 01:28:08;;;;;;;45.13;25.60;;;;;;;-3.50;95.54;101224.94;4881171;29;20686;-88
2021/03/02 01:30:59;;;;;;;43.40;25.07;;;;;;;-3.55;95.57;101209.44;4883247;29;20315;-88
2021/03/02 01:33:47;;;;;;;46.10;23.97;;;;;;;-3.59;95.16;101209.72;4881453;29;20260;-90
2021/03/02 01:36:38;;;;;;;47.87;24.97;;;;;;;-3.62;95.75;101196.81;4896003;29;20241;-91
2021/03/02 01:39:29;;;;;;;41.57;24.23;;;;;;;-3.60;95.32;101206.28;4876645;29;20255;-88
2021/03/02 01:42:19;;;;;;;42.50;24.07;;;;;;;-3.44;96.00;101221.06;4862231;29;20252;-86
2021/03/02 01:45:13;;;;;;;43.30;23.20;;;;;;;-3.57;95.62;101203.47;4875716;29;20236;-89
2021/03/02 01:48:11;;;;;;;49.37;25.43;;;;;;;-3.48;95.53;101215.19;4881225;29;20239;-87
2021/03/02 01:51:01;;;;;;;40.87;24.17;;;;;;;-3.63;95.19;101188.13;4878828;29;20230;-91
2021/03/02 01:53:54;;;;;;;42.90;24.43;;;;;;;-3.77;95.59;101168.91;4877931;29;20725;-88
2021/03/02 01:56:43;;;;;;;42.27;23.53;;;;;;;-3.64;95.90;101183.00;4881053;29;20231;-86
2021/03/02 01:59:28;;;;;;;44.27;25.33;;;;;;;-3.71;95.76;101185.13;4878700;29;20531;-83
2021/03/02 02:02:21;;;;;;;42.63;24.73;;;;;;;-3.57;95.75;101203.47;4862301;29;20228;-85
2021/03/02 02:05:10;;;;;;;47.03;25.83;;;;;;;-3.65;95.94;101184.75;4870594;29;20279;-88
2021/03/02 02:08:00;;;;;;;45.37;25.57;;;;;;;-3.75;95.73;101165.28;4881191;29;20239;-91
2021/03/02 02:11:28;;;;;;;47.53;24.77;;;;;;;-3.49;96.15;101187.28;4865178;29;20247;-85
2021/03/02 02:14:31;;;;;;;46.67;23.80;;;;;;;-3.59;96.19;101166.03;4862488;29;20235;-88
2021/03/02 02:17:31;;;;;;;46.60;23.80;;;;;;;-3.49;96.01;101171.56;4875458;29;20712;-90
2021/03/02 02:21:01;;;;;;;40.93;23.70;;;;;;;-3.57;95.98;101172.03;4871990;29;20756;-86
2021/03/02 02:24:24;;;;;;;43.93;24.37;;;;;;;-3.63;95.82;101171.56;4902421;29;20310;-86
2021/03/02 02:27:16;;;;;;;44.53;24.13;;;;;;;-3.74;95.76;101164.34;4880940;29;20235;-88
2021/03/02 02:30:06;;;;;;;43.63;23.07;;;;;;;-3.77;95.59;101164.53;4884095;29;20317;-90
2021/03/02 02:33:03;;;;;;;41.20;23.13;;;;;;;-3.67;95.59;101189.25;4899533;29;20313;-88
2021/03/02 02:35:57;;;;;;;43.53;24.10;;;;;;;-3.77;95.75;101163.66;4892782;29;20235;-87
2021/03/02 02:39:00;;;;;;;45.03;26.87;;;;;;;-3.70;95.64;101180.72;4867808;29;20652;-89
2021/03/02 02:41:56;;;;;;;43.33;26.57;;;;;;;-3.73;95.30;101184.34;4897382;29;20226;-89
2021/03/02 02:44:49;;;;;;;44.57;25.03;;;;;;;-3.75;95.52;101186.25;4899710;29;20238;-84
2021/03/02 02:47:50;;;;;;;40.47;23.63;;;;;;;-3.76;95.57;101181.06;4880729;29;20244;-85
2021/03/02 02:50:52;;;;;;;46.13;23.57;;;;;;;-3.84;95.48;101157.97;4876994;29;20659;-92
2021/03/02 02:53:49;;;;;;;40.97;24.23;;;;;;;-3.78;95.70;101204.72;4900374;29;20314;-88
2021/03/02 02:56:43;;;;;;;46.10;26.30;;;;;;;-3.79;94.87;101194.38;4878000;29;20508;-91
2021/03/02 02:59:41;;;;;;;42.77;26.63;;;;;;;-3.92;94.92;101183.78;4900314;29;20526;-88
2021/03/02 03:02:31;;;;;;;41.50;24.87;;;;;;;-3.82;95.08;101199.75;4905223;29;20246;-92
2021/03/02 03:05:09;;;;;;;44.57;24.00;;;;;;;-4.00;95.10;101185.97;4895129;29;20747;-84
2021/03/02 03:08:13;;;;;;;46.37;23.10;;;;;;;-3.87;95.30;101200.03;4895208;29;20243;-87
2021/03/02 03:11:08;;;;;;;37.83;22.20;;;;;;;-3.99;94.59;101192.91;4900856;29;20223;-95
2021/03/02 03:13:55;;;;;;;39.93;21.30;;;;;;;-4.19;94.91;101174.88;4898255;29;20238;-82
2021/03/02 03:16:50;;;;;;;38.53;21.90;;;;;;;-4.10;95.60;101190.91;4902252;29;20826;-85
2021/03/02 03:19:53;;;;;;;39.67;22.77;;;;;;;-4.15;95.28;101179.00;4918082;29;20570;-86
2021/03/02 03:22:45;;;;;;;37.83;23.03;;;;;;;-4.10;95.65;101195.28;4885376;29;20648;-87
2021/03/02 03:25:36;;;;;;;40.40;22.90;;;;;;;-4.15;96.11;101198.16;4878468;29;20288;-91
2021/03/02 03:28:27;;;;;;;42.03;22.67;;;;;;;-4.20;95.88;101192.34;4896215;29;20247;-85
2021/03/02 03:31:20;;;;;;;43.73;23.37;;;;;;;-4.19;95.68;101195.81;4891558;29;20685;-85
2021/03/02 03:34:03;;;;;;;46.87;22.53;;;;;;;-4.33;95.82;101170.44;4864682;29;20292;-84
2021/03/02 03:36:56;;;;;;;40.03;22.70;;;;;;;-4.18;95.40;101190.50;4886888;29;20227;-88
2021/03/02 03:39:42;;;;;;;41.70;24.17;;;;;;;-4.31;95.41;101171.22;4897688;29;20235;-85
2021/03/02 03:42:29;;;;;;;41.87;22.40;;;;;;;-4.35;95.72;101168.84;4885070;29;20664;-86
2021/03/02 03:45:17;;;;;;;39.83;22.80;;;;;;;-4.23;95.52;101189.06;4880101;29;20554;-86
2021/03/02 03:48:07;;;;;;;42.23;22.10;;;;;;;-4.43;95.80;101151.81;4881731;29;20232;-89
2021/03/02 03:50:57;;;;;;;40.97;23.20;;;;;;;-4.32;95.68;101177.38;4896400;29;20259;-87
2021/03/02 03:53:46;;;;;;;40.43;22.63;;;;;;;-4.32;95.30;101179.13;4898144;29;20255;-94
2021/03/02 03:56:37;;;;;;;36.13;21.57;;;;;;;-4.29;95.47;101192.88;4879227;29;20263;-89
2021/03/02 03:59:29;;;;;;;45.67;23.63;;;;;;;-4.46;95.16;101161.59;4866647;29;20323;-87
2021/03/02 04:02:27;;;;;;;38.70;23.17;;;;;;;-4.33;95.47;101182.69;4863660;29;20326;-85
2021/03/02 04:05:24;;;;;;;41.17;23.47;;;;;;;-4.41;95.62;101161.34;4883138;29;20311;-85
2021/03/02 04:08:14;;;;;;;40.97;22.43;;;;;;;-4.30;95.52;101182.53;4867449;29;20228;-88
2021/03/02 04:11:06;;;;;;;41.27;22.17;;;;;;;-4.35;94.69;101176.72;4864412;29;20248;-88
2021/03/02 04:13:55;;;;;;;36.97;21.93;;;;;;;-4.50;94.49;101168.78;4877563;29;20238;-91
2021/03/02 04:16:54;;;;;;;40.37;22.93;;;;;;;-4.35;94.73;101177.56;4880199;29;20247;-88
2021/03/02 04:19:52;;;;;;;41.47;23.17;;;;;;;-4.43;94.92;101177.97;4870812;29;20232;-86
2021/03/02 04:22:59;;;;;;;39.43;22.03;;;;;;;-4.36;94.57;101186.31;4883676;29;20606;-85
2021/03/02 04:25:47;;;;;;;40.83;22.83;;;;;;;-4.35;95.00;101187.16;4891445;29;20289;-87
2021/03/02 04:28:42;;;;;;;39.70;21.90;;;;;;;-4.41;94.70;101167.44;4890717;29;20521;-85
2021/03/02 04:31:34;;;;;;;37.60;21.57;;;;;;;-4.45;94.67;101161.53;4902465;29;20694;-93
2021/03/02 04:34:30;;;;;;;38.70;21.53;;;;;;;-4.34;95.22;101166.16;4901764;29;20231;-86
2021/03/02 04:37:20;;;;;;;41.03;22.23;;;;;;;-4.28;94.28;101172.78;4876785;29;20324;-85
2021/03/02 04:40:06;;;;;;;40.77;21.90;;;;;;;-4.23;94.38;101176.00;4888772;29;20230;-90
2021/03/02 04:43:06;;;;;;;46.83;30.50;;;;;;;-4.18;94.38;101160.88;4897111;29;21064;-94
2021/03/02 04:46:05;;;;;;;44.23;29.23;;;;;;;-4.01;94.15;101177.28;4889014;29;20246;-93
2021/03/02 04:49:01;;;;;;;45.93;28.40;;;;;;;-4.07;94.52;101143.63;4903166;29;20230;-90
2021/03/02 04:51:49;;;;;;;48.53;28.30;;;;;;;-4.08;94.24;101128.84;4906773;29;20305;-92
2021/03/02 04:54:45;;;;;;;47.97;26.73;;;;;;;-3.78;93.70;101178.53;4884202;29;20227;-87
2021/03/02 04:57:35;;;;;;;45.27;25.67;;;;;;;-3.84;93.88;101157.13;4905124;29;20223;-83
2021/03/02 05:00:33;;;;;;;43.47;25.60;;;;;;;-3.70;93.35;101171.09;4919881;29;20238;-90
2021/03/02 05:03:25;;;;;;;45.40;25.63;;;;;;;-3.77;93.57;101153.19;4909676;29;20234;-92
2021/03/02 05:06:20;;;;;;;44.23;25.00;;;;;;;-3.53;93.57;101179.69;4900962;29;20230;-93
2021/03/02 05:09:15;;;;;;;43.53;24.53;;;;;;;-3.45;93.00;101175.69;4902789;29;20257;-82
2021/03/02 05:12:14;;;;;;;39.67;23.73;;;;;;;-3.33;93.49;101189.84;4902187;29;20312;-90
2021/03/02 05:15:05;;;;;;;41.60;24.17;;;;;;;-3.28;93.23;101177.28;4900166;29;20282;-93
2021/03/02 05:18:00;;;;;;;41.37;24.33;;;;;;;-3.35;93.20;101150.59;4904682;29;20229;-94
2021/03/02 05:20:52;;;;;;;41.70;23.80;;;;;;;-3.01;92.98;101186.06;4919775;29;20226;-88
2021/03/02 05:23:50;;;;;;;43.10;23.97;;;;;;;-3.05;93.19;101154.91;4902872;29;20670;-92
2021/03/02 05:26:40;;;;;;;43.90;24.37;;;;;;;-2.86;93.06;101184.28;4881293;29;20232;-87
2021/03/02 05:29:43;;;;;;;47.10;23.77;;;;;;;-2.84;93.20;101183.22;4897293;29;20234;-89
2021/03/02 05:32:34;;;;;;;49.10;24.37;;;;;;;-2.85;93.54;101159.75;4915249;29;20246;-92
2021/03/02 05:35:30;;;;;;;57.93;26.43;;;;;;;-2.62;93.36;101179.25;4882082;29;20238;-92
2021/03/02 05:38:23;;;;;;;66.07;27.93;;;;;;;-2.57;93.73;101174.56;4885531;29;20286;-88
2021/03/02 05:41:13;;;;;;;79.30;30.27;;;;;;;-2.50;94.22;101171.44;4900537;29;20230;-90
2021/03/02 05:44:04;;;;;;;92.23;34.03;;;;;;;-2.32;94.74;101187.78;4900434;29;20318;-89
2021/03/02 05:46:51;;;;;;;101.37;34.03;;;;;;;-2.56;95.09;101163.94;4886926;29;20227;-91
2021/03/02 05:49:57;;;;;;;113.40;35.73;;;;;;;-2.34;95.45;101194.91;4901325;29;20242;-92
2021/03/02 05:53:01;;;;;;;102.20;35.67;;;;;;;-2.38;95.75;101185.56;4887151;29;20222;-85
2021/03/02 05:55:51;;;;;;;142.83;38.03;;;;;;;-2.14;95.94;101212.81;4895010;29;20235;-90
2021/03/02 05:58:47;;;;;;;135.43;40.43;;;;;;;-2.20;96.27;101215.88;4882792;29;20227;-91
2021/03/02 06:01:46;;;;;;;307.70;51.13;;;;;;;-2.13;96.66;101214.50;4879106;29;20251;-90
2021/03/02 06:04:55;;;;;;;220.97;46.43;;;;;;;-2.07;97.52;101221.16;4893673;29;20886;-89
2021/03/02 06:07:52;;;;;;;208.00;47.93;;;;;;;-1.96;97.74;101222.13;4902075;29;20654;-90
2021/03/02 06:10:43;;;;;;;152.87;45.77;;;;;;;-1.84;97.83;101207.34;4883035;29;20231;-92
2021/03/02 06:13:39;;;;;;;160.70;47.13;;;;;;;-1.67;97.96;101216.72;4895621;29;20243;-87
2021/03/02 06:16:50;;;;;;;173.63;47.57;;;;;;;-1.43;97.85;101230.84;4882830;29;20287;-91
2021/03/02 06:19:49;;;;;;;358.77;51.60;;;;;;;-1.42;97.34;101232.53;4892584;29;20650;-91
2021/03/02 06:22:39;;;;;;;133.80;43.17;;;;;;;-1.28;97.35;101239.47;4899963;29;20294;-95
2021/03/02 06:25:39;;;;;;;265.83;46.87;;;;;;;-1.31;97.07;101237.91;4896134;29;20227;-92
2021/03/02 06:28:51;;;;;;;323.23;48.57;;;;;;;-1.27;96.99;101233.28;4882849;29;20250;-92
2021/03/02 06:31:41;;;;;;;128.23;41.40;;;;;;;-1.15;97.11;101250.84;4882914;29;20672;-85
2021/03/02 06:34:31;;;;;;;301.47;47.63;;;;;;;-1.21;96.66;101230.22;4883764;29;20287;-92
2021/03/02 06:37:20;;;;;;;163.87;49.40;;;;;;;-1.09;97.42;101239.91;4882777;29;20231;-81
2021/03/02 06:40:13;;;;;;;297.00;71.20;;;;;;;-0.90;97.19;101258.72;4884300;29;20262;-88
2021/03/02 06:42:59;;;;;;;238.43;45.20;;;;;;;-0.84;97.24;101263.53;4882717;29;20227;-81
2021/03/02 06:45:57;;;;;;;120.40;39.37;;;;;;;-0.76;97.32;101263.03;4884174;29;20319;-87
2021/03/02 06:49:06;;;;;;;170.30;37.97;;;;;;;-0.71;96.98;101260.91;4887334;29;20675;-94
2021/03/02 06:52:03;;;;;;;230.93;33.77;;;;;;;-0.71;96.98;101256.50;4897107;29;20236;-84
2021/03/02 06:55:00;;;;;;;256.27;38.67;;;;;;;-0.66;96.88;101272.81;4882879;29;20228;-92
2021/03/02 06:58:15;;;;;;;227.87;36.90;;;;;;;-0.62;96.94;101279.53;4857269;29;20227;-94
2021/03/02 07:01:09;;;;;;;158.97;31.57;;;;;;;-0.69;96.07;101280.03;4896720;29;20316;-93
2021/03/02 07:04:15;;;;;;;129.00;31.87;;;;;;;-0.69;96.03;101256.34;4885079;29;20234;-89
2021/03/02 07:07:14;;;;;;;87.63;32.00;;;;;;;-0.58;95.48;101265.19;4879444;29;20709;-85
2021/03/02 07:10:11;;;;;;;119.20;30.13;;;;;;;-0.61;94.51;101259.31;4887112;29;20231;-86
2021/03/02 07:13:05;;;;;;;106.67;30.87;;;;;;;-0.24;95.16;101281.22;4886890;29;20251;-91
2021/03/02 07:15:51;;;;;;;67.80;28.77;;;;;;;-0.18;94.55;101259.69;4890371;29;20241;-85
2021/03/02 07:18:46;;;;;;;63.20;29.23;;;;;;;0.02;94.22;101251.19;4895984;29;20264;-91
2021/03/02 07:22:02;;;;;;;60.47;28.83;;;;;;;0.06;92.88;101233.34;4901148;29;20231;-81
2021/03/02 07:25:28;;;;;;;59.80;28.87;;;;;;;0.43;92.25;101274.47;4886275;29;20223;-79
2021/03/02 07:28:58;;;;;;;53.00;27.90;;;;;;;0.66;90.87;101272.72;4912746;23;20232;-81
2021/03/02 07:32:35;;;;;;;56.60;26.37;;;;;;;0.50;87.74;101272.22;4922186;29;20234;-80
2021/03/02 07:35:51;;;;;;;55.00;27.10;;;;;;;0.63;89.50;101279.09;4913264;29;20233;-81
2021/03/02 07:38:46;;;;;;;56.47;27.63;;;;;;;0.65;88.34;101281.63;4888680;29;20723;-81
2021/03/02 07:41:51;;;;;;;51.43;26.70;;;;;;;0.99;88.17;101275.44;4873585;29;20255;-81
2021/03/02 07:45:08;;;;;;;51.03;26.17;;;;;;;0.91;86.59;101247.97;4901428;23;20246;-79
2021/03/02 07:48:30;;;;;;;51.87;26.83;;;;;;;0.88;87.17;101265.72;4863199;29;20229;-79
2021/03/02 07:56:11;;;;;;;49.03;26.63;;;;;;;1.39;86.70;101283.75;4903928;23;20254;-80
2021/03/02 07:59:10;;;;;;;46.00;26.90;;;;;;;1.58;85.35;101294.53;4914432;23;20330;-79
2021/03/02 08:01:37;;;;;;;47.27;26.40;;;;;;;1.70;85.60;101282.16;4907332;29;20234;-79
2021/03/02 08:04:15;;;;;;;50.23;26.77;;;;;;;2.09;83.78;101288.66;4906642;29;20530;-79
2021/03/02 08:06:43;;;;;;;47.07;26.53;;;;;;;1.66;83.00;101286.84;4906156;29;20258;-79
2021/03/02 08:09:25;;;;;;;46.63;26.03;;;;;;;1.97;83.77;101294.94;4908651;23;20338;-80
2021/03/02 08:11:54;;;;;;;49.27;26.43;;;;;;;2.09;84.08;101293.97;4891045;29;20246;-81
2021/03/02 08:14:21;;;;;;;45.67;25.57;;;;;;;2.32;82.98;101298.22;4901608;29;20624;-79
2021/03/02 08:17:03;;;;;;;48.77;27.73;;;;;;;2.55;81.23;101296.28;4896131;29;20226;-79
2021/03/02 08:19:37;;;;;;;48.10;25.80;;;;;;;2.70;81.25;101292.38;4890178;29;20282;-80
2021/03/02 08:22:26;;;;;;;43.97;25.83;;;;;;;2.40;82.16;101279.88;4890706;29;20318;-80
2021/03/02 08:24:58;;;;;;;46.27;25.83;;;;;;;2.71;80.63;101293.22;4910533;29;20627;-79
2021/03/02 08:27:52;;;;;;;46.67;25.17;;;;;;;2.81;80.80;101292.28;4887350;29;20294;-79
2021/03/02 08:30:22;;;;;;;45.50;24.47;;;;;;;2.60;78.57;101294.13;4865753;29;20250;-80
2021/03/02 08:32:50;;;;;;;46.10;26.37;;;;;;;2.49;80.16;101287.06;4874840;29;20254;-79
2021/03/02 08:35:23;;;;;;;44.37;24.90;;;;;;;2.73;81.24;101284.16;4885987;29;20547;-81
2021/03/02 08:38:08;;;;;;;46.47;25.73;;;;;;;2.89;81.92;101291.66;4884652;29;20251;-79
2021/03/02 08:40:35;;;;;;;46.77;25.23;;;;;;;3.42;79.32;101290.53;4869329;29;20220;-79
2021/03/02 08:43:19;;;;;;;48.33;25.53;;;;;;;3.29;79.69;101281.97;4893722;29;20624;-80
2021/03/02 08:46:03;;;;;;;44.60;24.43;;;;;;;3.63;76.83;101282.53;4895160;29;20248;-80
2021/03/02 08:48:59;;;;;;;47.23;25.43;;;;;;;3.52;77.35;101262.25;4911811;23;20274;-80
2021/03/02 08:52:05;;;;;;;43.23;25.07;;;;;;;3.59;79.10;101254.63;4910165;29;20215;-81
2021/03/02 08:55:11;;;;;;;45.77;24.80;;;;;;;3.69;78.22;101278.47;4913945;29;20231;-80
2021/03/02 08:58:03;;;;;;;47.90;26.10;;;;;;;3.99;76.63;101276.63;4900152;29;20719;-78
2021/03/02 09:01:06;;;;;;;43.70;24.77;;;;;;;3.67;78.20;101273.34;4891735;29;20227;-79
2021/03/02 09:04:37;;;;;;;49.80;27.93;;;;;;;3.87;76.73;101290.13;4896555;29;20221;-80
2021/03/02 09:08:08;;;;;;;48.57;25.60;;;;;;;3.74;79.81;101290.34;4964895;23;20262;-81
2021/03/02 09:10:46;;;;;;;49.97;25.53;;;;;;;3.97;78.17;101267.94;4927281;23;20303;-80
2021/03/02 09:13:41;;;;;;;54.80;27.73;;;;;;;3.96;78.26;101292.81;4892816;29;20311;-79
2021/03/02 09:16:35;;;;;;;53.90;27.57;;;;;;;4.13;79.13;101291.28;4895012;29;21038;-80
2021/03/02 09:19:14;;;;;;;52.27;27.67;;;;;;;3.99;80.02;101289.03;4893590;29;20283;-80
2021/03/02 09:22:31;;;;;;;56.60;29.00;;;;;;;4.36;77.86;101292.69;4904799;29;20207;-80
2021/03/02 09:26:18;;;;;;;54.87;28.00;;;;;;;4.40;78.29;101294.09;4951471;23;20238;-79
2021/03/02 09:29:55;;;;;;;48.37;25.67;;;;;;;4.84;76.21;101276.75;4901535;29;20184;-80
2021/03/02 09:33:18;;;;;;;49.60;26.33;;;;;;;5.05;75.29;101286.31;4951839;23;20273;-80
2021/03/02 09:35:55;;;;;;;49.70;26.53;;;;;;;4.91;76.25;101257.56;4946880;23;20242;-81
2021/03/02 09:38:36;;;;;;;37.70;20.97;;;;;;;5.45;73.27;101292.22;4942909;23;20301;-79
2021/03/02 09:41:07;;;;;;;38.93;21.37;;;;;;;5.51;73.09;101269.50;4916637;29;20230;-80
2021/03/02 09:43:56;;;;;;;39.00;22.07;;;;;;;6.04;71.40;101286.47;4913788;29;20677;-79
2021/03/02 09:46:54;;;;;;;38.07;21.03;;;;;;;6.49;69.62;101288.22;4933472;29;20214;-79
2021/03/02 09:49:52;;;;;;;41.13;22.40;;;;;;;6.19;70.72;101282.31;4892216;29;20250;-80
2021/03/02 09:52:24;;;;;;;43.50;22.87;;;;;;;6.39;70.78;101282.97;4923207;29;20198;-80
2021/03/02 09:56:12;;;;;;;40.33;23.03;;;;;;;6.45;69.39;101286.84;4947513;23;20261;-80
2021/03/02 09:58:50;;;;;;;41.23;22.47;;;;;;;6.29;69.23;101281.41;4935540;23;20293;-82
2021/03/02 10:01:45;;;;;;;40.10;21.90;;;;;;;6.35;67.85;101289.59;4935098;23;20241;-80
2021/03/02 10:04:24;;;;;;;40.23;22.40;;;;;;;5.70;69.40;101283.53;4910995;29;20232;-79
2021/03/02 10:07:12;;;;;;;40.30;23.17;;;;;;;5.85;69.81;101277.72;4915724;29;20242;-79
2021/03/02 10:09:47;;;;;;;38.67;22.87;;;;;;;6.26;69.68;101268.38;4926840;29;20230;-79
2021/03/02 10:12:21;;;;;;;41.53;23.30;;;;;;;6.47;67.61;101255.59;4913939;23;20231;-79
2021/03/02 10:14:55;;;;;;;40.27;24.73;;;;;;;6.80;67.88;101280.66;4930870;29;20254;-79
2021/03/02 10:17:36;;;;;;;38.67;23.17;;;;;;;6.67;68.04;101267.75;4931374;29;20320;-80
2021/03/02 10:20:26;;;;;;;39.83;22.80;;;;;;;6.30;69.94;101278.56;4926965;29;20261;-80
2021/03/02 10:23:21;;;;;;;38.67;23.47;;;;;;;6.34;69.03;101273.78;4931741;29;20285;-80
2021/03/02 10:29:48;;;;;;;37.37;23.27;;;;;;;6.56;68.63;101278.63;4930280;23;20242;-80
2021/03/02 10:32:38;;;;;;;43.53;24.33;;;;;;;6.43;68.61;101265.72;4899390;29;20226;-80
2021/03/02 10:35:31;;;;;;;40.60;24.33;;;;;;;5.87;72.13;101270.47;5018166;23;20243;-81
2021/03/02 10:39:03;;;;;;;44.60;25.60;;;;;;;6.39;69.84;101276.84;4920197;29;20237;-79
2021/03/02 10:41:59;;;;;;;42.27;25.23;;;;;;;6.90;68.42;101273.41;4876480;29;20246;-79
2021/03/02 10:44:45;;;;;;;43.87;25.80;;;;;;;6.82;67.45;101249.34;4879275;29;20232;-80
2021/03/02 10:47:24;;;;;;;44.73;25.70;;;;;;;6.43;69.02;101267.56;4876999;29;20235;-79
2021/03/02 10:50:22;;;;;;;43.53;25.30;;;;;;;6.74;68.33;101234.16;4858841;29;20228;-80
2021/03/02 10:52:57;;;;;;;47.23;27.40;;;;;;;6.62;68.49;101265.53;4860815;29;20238;-79
2021/03/02 10:55:50;;;;;;;43.63;26.50;;;;;;;6.14;70.46;101259.78;4878703;23;20268;-80
2021/03/02 10:58:49;;;;;;;48.63;28.17;;;;;;;6.88;68.60;101260.25;4926755;23;20240;-79
2021/03/02 11:01:23;;;;;;;48.27;27.63;;;;;;;7.30;66.95;101252.31;4932880;29;20237;-80
2021/03/02 11:04:04;;;;;;;45.03;27.27;;;;;;;7.34;66.04;101245.69;4933337;29;20191;-80
2021/03/02 11:06:50;;;;;;;43.63;26.53;;;;;;;8.07;65.24;101239.75;4936538;29;20178;-80
2021/03/02 11:09:27;;;;;;;46.50;26.03;;;;;;;8.20;65.04;101208.06;5096209;23;20231;-80
2021/03/02 11:12:16;;;;;;;45.07;27.47;;;;;;;8.42;63.56;101241.31;4930060;29;20233;-80
2021/03/02 11:15:20;;;;;;;43.83;26.53;;;;;;;7.05;66.10;101206.03;4921731;23;20227;-80
2021/03/02 11:18:10;;;;;;;46.03;27.40;;;;;;;7.22;66.77;101220.31;4892652;29;20295;-80
2021/03/02 11:20:57;;;;;;;51.60;29.50;;;;;;;6.81;68.47;101210.41;4888778;29;20225;-79
2021/03/02 11:23:53;;;;;;;52.27;30.27;;;;;;;6.62;69.95;101222.09;4905247;29;20198;-79
2021/03/02 11:26:43;;;;;;;50.57;29.57;;;;;;;6.69;68.48;101199.16;4923326;29;20234;-80
2021/03/02 11:29:27;;;;;;;49.07;28.90;;;;;;;7.30;68.11;101212.34;4914373;29;20205;-80
2021/03/02 11:32:11;;;;;;;54.83;30.30;;;;;;;6.96;68.73;101212.31;4913776;29;20215;-80
2021/03/02 11:34:58;;;;;;;52.77;31.20;;;;;;;7.64;65.73;101211.47;4908054;29;20257;-80
2021/03/02 11:37:52;;;;;;;53.43;30.03;;;;;;;7.77;66.16;101204.66;4922792;29;20249;-80
2021/03/02 11:40:52;;;;;;;54.33;30.47;;;;;;;8.47;64.42;101202.41;4915566;29;20238;-79
2021/03/02 11:44:01;;;;;;;52.07;29.93;;;;;;;8.73;62.76;101191.53;4931356;29;20226;-80
2021/03/02 11:47:04;;;;;;;51.77;30.47;;;;;;;7.69;64.91;101175.31;4925567;23;20210;-80
2021/03/02 11:49:58;;;;;;;54.63;30.77;;;;;;;8.35;64.46;101193.09;4914967;29;20238;-80
2021/03/02 11:52:47;;;;;;;57.30;32.47;;;;;;;8.23;64.35;101192.53;4915926;29;20239;-80
2021/03/02 11:55:33;;;;;;;55.17;31.93;;;;;;;8.64;62.71;101187.19;4918273;29;20245;-79
2021/03/02 11:58:32;;;;;;;51.20;30.53;;;;;;;8.87;62.56;101173.94;4930724;23;20258;-79
2021/03/02 12:01:24;;;;;;;51.90;30.60;;;;;;;8.78;63.86;101179.31;4931692;29;20238;-79
2021/03/02 12:04:12;;;;;;;50.00;31.00;;;;;;;7.59;65.63;101160.44;4916074;29;20273;-79
2021/03/02 12:07:22;;;;;;;50.17;31.40;;;;;;;7.49;66.90;101158.75;4922329;29;20328;-80
2021/03/02 12:10:04;;;;;;;55.63;32.10;;;;;;;7.86;66.14;101173.50;4929603;29;20202;-79
2021/03/02 12:13:04;;;;;;;59.87;35.33;;;;;;;7.66;65.58;101145.44;4932082;29;20236;-80
2021/03/02 12:15:55;;;;;;;57.73;32.87;;;;;;;6.70;69.69;101157.41;4933210;29;20198;-79
2021/03/02 12:18:51;;;;;;;53.00;33.23;;;;;;;6.79;69.90;101133.31;4932009;29;20226;-79
2021/03/02 12:21:52;;;;;;;54.87;32.47;;;;;;;7.48;69.09;101145.56;4915279;29;20227;-79
2021/03/02 12:24:34;;;;;;;56.27;34.67;;;;;;;7.53;68.48;101148.56;4913172;29;20231;-79
2021/03/02 12:27:17;;;;;;;61.00;34.67;;;;;;;7.00;68.84;101141.72;4899199;29;20240;-79
2021/03/02 12:30:03;;;;;;;55.90;33.83;;;;;;;6.55;71.43;101154.47;4917886;29;20233;-80
2021/03/02 12:33:10;;;;;;;54.57;33.67;;;;;;;6.72;71.91;101145.56;4934243;29;20222;-79
2021/03/02 12:36:00;;;;;;;59.60;34.47;;;;;;;6.85;71.51;101126.53;4933939;29;20275;-79
2021/03/02 12:39:06;;;;;;;62.40;35.07;;;;;;;6.83;71.67;101132.00;4927995;23;20263;-81
2021/03/02 12:42:08;;;;;;;60.13;35.43;;;;;;;6.70;72.00;101134.25;4911145;29;20522;-82
2021/03/02 12:44:48;;;;;;;57.70;34.87;;;;;;;6.57;72.35;101121.38;4910535;29;20643;-82
2021/03/02 12:47:26;;;;;;;61.03;34.23;;;;;;;6.81;72.05;101123.31;4895261;29;20262;-82
2021/03/02 12:50:01;;;;;;;57.77;35.17;;;;;;;7.06;71.38;101114.44;4910609;29;20227;-82
2021/03/02 12:52:42;;;;;;;60.57;36.00;;;;;;;6.90;71.84;101092.25;4912406;29;20241;-82
2021/03/02 12:55:24;;;;;;;62.33;36.43;;;;;;;6.89;72.32;101109.22;4896421;29;20298;-81
2021/03/02 13:01:31;;;;;;;57.30;36.53;;;;;;;7.26;71.78;101114.19;4937981;23;20248;-80
2021/03/02 13:04:32;;;;;;;55.57;34.83;;;;;;;7.48;71.13;101106.41;4950881;29;20233;-79
2021/03/02 13:07:17;;;;;;;58.97;34.80;;;;;;;7.27;71.32;101107.84;4945719;23;20234;-79
2021/03/02 13:09:46;;;;;;;56.97;34.20;;;;;;;7.14;71.80;101075.50;5036340;23;20241;-79
2021/03/02 13:12:37;;;;;;;57.70;36.20;;;;;;;7.58;70.99;101100.06;4957942;23;20265;-80
2021/03/02 13:16:01;;;;;;;55.53;34.97;;;;;;;7.31;71.37;101104.69;4941146;29;20656;-79
2021/03/02 13:19:25;;;;;;;53.83;33.97;;;;;;;7.48;71.57;101076.22;4921441;23;20684;-79
2021/03/02 13:22:27;;;;;;;56.53;35.57;;;;;;;7.70;71.30;101086.25;4894138;29;20682;-80